createdAt,value
2022-11-05T00:04:31.108Z,100677.34
2022-11-05T00:07:17.306Z,100684.47
2022-11-05T00:09:45.448Z,100688.19
2022-11-05T00:12:31.767Z,100684.75
2022-11-05T00:15:17.059Z,100705.31
2022-11-05T00:17:44.633Z,100697.34
2022-11-05T00:20:14.096Z,100703.59
2022-11-05T00:22:59.345Z,100708.28
2022-11-05T00:25:30.501Z,100705.59
2022-11-05T00:28:01.709Z,100699.31
2022-11-05T00:30:29.436Z,100707.31
2022-11-05T00:33:01.498Z,100712.72
2022-11-05T00:35:30.934Z,100712.72
2022-11-05T00:37:58.668Z,100711.00
2022-11-05T00:40:26.388Z,100708.44
2022-11-05T00:43:11.983Z,100714.72
2022-11-05T00:45:41.085Z,100718.44
2022-11-05T00:48:26.267Z,100716.72
2022-11-05T00:50:55.550Z,100724.72
2022-11-05T00:53:23.652Z,100727.56
2022-11-05T00:55:51.362Z,100719.44
2022-11-05T00:58:19.514Z,100724.88
2022-11-05T01:45:24.088Z,100765.13
2022-11-05T01:47:57.767Z,100767.84
2022-11-05T01:50:30.705Z,100774.09
2022-11-05T01:52:59.383Z,100776.13
2022-11-05T01:55:27.356Z,100782.38
2022-11-05T01:57:54.878Z,100789.69
2022-11-05T02:00:23.789Z,100790.66
2022-11-05T02:46:54.163Z,100823.50
2022-11-05T02:49:25.873Z,100828.06
2022-11-05T02:51:54.119Z,100827.19
2022-11-05T02:54:23.039Z,100822.66
2022-11-05T02:56:50.884Z,100828.06
2022-11-05T02:59:18.274Z,100836.19
2022-11-05T03:45:41.734Z,100876.44
2022-11-05T03:48:10.832Z,100879.72
2022-11-05T03:50:41.397Z,100894.25
2022-11-05T03:53:11.284Z,100897.81
2022-11-05T03:55:40.466Z,100898.81
2022-11-05T03:58:08.088Z,100899.81
2022-11-05T04:47:26.534Z,100951.03
2022-11-05T04:49:54.305Z,100950.19
2022-11-05T04:52:22.436Z,100949.31
2022-11-05T04:54:50.972Z,100950.19
2022-11-05T04:57:19.491Z,100955.63
2022-11-05T04:59:50.684Z,100954.72
2022-11-05T05:31:31.956Z,100965.84
2022-11-05T05:33:59.527Z,100978.56
2022-11-05T05:36:26.964Z,100975.84
2022-11-05T05:38:54.614Z,100982.25
2022-11-05T05:41:22.140Z,100978.72
2022-11-05T05:43:49.750Z,100990.38
2022-11-05T05:46:17.524Z,100981.41
2022-11-05T05:48:48.888Z,100988.69
2022-11-05T05:51:16.401Z,100988.69
2022-11-05T05:53:43.998Z,100998.66
2022-11-05T05:56:14.795Z,101002.25
2022-11-05T05:58:42.262Z,101008.66
2022-11-05T06:01:14.170Z,101014.06
2022-11-05T06:03:46.614Z,101017.78
2022-11-05T06:06:14.800Z,101028.59
2022-11-05T06:08:43.143Z,101026.78
2022-11-05T06:11:11.098Z,101037.75
2022-11-05T06:13:39.027Z,101039.44
2022-11-05T06:16:07.437Z,101044.03
2022-11-05T06:18:35.220Z,101043.88
2022-11-05T06:21:04.605Z,101050.00
2022-11-05T06:23:32.926Z,101057.28
2022-11-05T06:26:01.453Z,101062.56
2022-11-05T06:28:29.664Z,101064.44
2022-11-05T06:30:57.372Z,101065.41
2022-11-05T06:33:25.012Z,101066.25
2022-11-05T06:35:52.486Z,101064.28
2022-11-05T06:38:21.571Z,101077.97
2022-11-05T06:40:49.681Z,101083.41
2022-11-05T06:43:17.174Z,101082.53
2022-11-05T06:45:44.955Z,101093.34
2022-11-05T06:48:12.673Z,101093.34
2022-11-05T06:50:40.235Z,101104.19
2022-11-05T06:53:08.121Z,101093.34
2022-11-05T06:55:37.282Z,101096.81
2022-11-05T06:58:05.955Z,101091.38
2022-11-05T07:00:33.915Z,101102.22
2022-11-05T07:03:04.836Z,101095.09
2022-11-05T07:05:32.949Z,101106.78
2022-11-05T07:08:00.429Z,101105.94
2022-11-05T07:10:28.651Z,101118.47
2022-11-05T07:13:01.342Z,101121.19
2022-11-05T07:15:31.668Z,101131.03
2022-11-05T07:18:00.017Z,101131.91
2022-11-05T07:20:33.203Z,101132.75
2022-11-05T07:23:02.926Z,101134.75
2022-11-05T07:25:31.106Z,101145.59
2022-11-05T07:28:00.308Z,101134.75
2022-11-05T07:30:28.077Z,101140.16
2022-11-05T07:32:55.870Z,101148.16
2022-11-05T07:35:23.631Z,101152.69
2022-11-05T07:37:51.590Z,101153.56
2022-11-05T07:40:19.450Z,101159.84
2022-11-05T07:42:47.511Z,101163.53
2022-11-05T07:45:16.307Z,101157.28
2022-11-05T07:47:46.886Z,101148.16
2022-11-05T07:50:14.460Z,101147.41
2022-11-05T07:52:42.090Z,101154.41
2022-11-05T07:55:09.721Z,101156.16
2022-11-05T07:57:43.695Z,101145.31
2022-11-05T08:00:12.464Z,101152.41
2022-11-05T08:02:44.567Z,101160.56
2022-11-05T08:05:12.496Z,101156.16
2022-11-05T08:07:40.043Z,101162.28
2022-11-05T08:10:08.041Z,101169.56
2022-11-05T08:12:35.623Z,101163.25
2022-11-05T08:15:03.206Z,101164.13
2022-11-05T08:17:30.821Z,101163.25
2022-11-05T08:19:59.879Z,101168.69
2022-11-05T08:22:27.459Z,101180.25
2022-11-05T08:24:55.099Z,101180.25
2022-11-05T08:27:22.670Z,101195.78
2022-11-05T08:29:50.304Z,101192.09
2022-11-05T08:32:18.098Z,101204.66
2022-11-05T08:34:45.767Z,101201.06
2022-11-05T08:37:14.578Z,101199.22
2022-11-05T08:39:42.086Z,101207.38
2022-11-05T08:42:09.652Z,101209.19
2022-11-05T08:44:37.155Z,101220.78
2022-11-05T08:47:04.671Z,101212.66
2022-11-05T08:49:32.212Z,101206.06
2022-11-05T08:51:59.698Z,101220.38
2022-11-05T08:54:28.676Z,101207.16
2022-11-05T08:56:56.275Z,101210.22
2022-11-05T08:59:23.828Z,101204.88
2022-11-05T09:01:51.811Z,101213.28
2022-11-05T09:04:19.423Z,101214.78
2022-11-05T09:06:46.914Z,101231.94
2022-11-05T09:09:14.530Z,101224.19
2022-11-05T09:12:10.592Z,101221.88
2022-11-05T09:14:31.597Z,101245.28
2022-11-05T09:16:59.082Z,101247.56
2022-11-05T09:19:26.715Z,101247.88
2022-11-05T09:21:54.706Z,101250.16
2022-11-05T09:24:22.275Z,101260.47
2022-11-05T09:26:51.130Z,101256.00
2022-11-05T09:29:19.096Z,101269.44
2022-11-05T09:31:46.851Z,101269.09
2022-11-05T09:34:14.380Z,101266.88
2022-11-05T09:36:41.869Z,101272.53
2022-11-05T09:39:11.976Z,101269.44
2022-11-05T09:41:39.899Z,101272.72
2022-11-05T09:44:11.249Z,101265.50
2022-11-05T09:46:40.103Z,101260.78
2022-11-05T09:49:08.443Z,101270.56
2022-11-05T09:51:37.300Z,101273.75
2022-11-05T09:54:05.517Z,101277.16
2022-11-05T09:56:34.680Z,101271.22
2022-11-05T09:59:02.621Z,101275.53
2022-11-05T10:01:32.042Z,101270.69
2022-11-05T10:04:00.428Z,101276.84
2022-11-05T10:06:28.045Z,101272.91
2022-11-05T10:08:57.043Z,101287.03
2022-11-05T10:11:25.514Z,101287.88
2022-11-05T10:13:53.687Z,101280.50
2022-11-05T10:16:22.835Z,101287.63
2022-11-05T10:18:52.248Z,101283.94
2022-11-05T10:21:37.643Z,101287.34
2022-11-05T10:24:12.313Z,101288.25
2022-11-05T10:26:39.820Z,101283.41
2022-11-05T10:29:07.316Z,101277.13
2022-11-05T10:31:35.662Z,101295.94
2022-11-05T10:34:05.273Z,101291.13
2022-11-05T10:36:34.093Z,101293.72
2022-11-05T10:39:01.984Z,101297.41
2022-11-05T10:41:31.733Z,101305.25
2022-11-05T10:44:01.424Z,101300.69
2022-11-05T10:46:29.649Z,101302.28
2022-11-05T10:49:01.984Z,101305.72
2022-11-05T10:51:30.770Z,101312.00
2022-11-05T10:54:02.180Z,101307.44
2022-11-05T10:56:33.957Z,101295.63
2022-11-05T10:59:06.680Z,101314.59
2022-11-05T11:01:37.445Z,101310.84
2022-11-05T11:04:06.501Z,101321.69
2022-11-05T11:06:38.555Z,101326.97
2022-11-05T11:09:07.390Z,101322.56
2022-11-05T11:11:36.909Z,101324.41
2022-11-05T11:14:05.776Z,101328.00
2022-11-05T11:16:35.196Z,101325.41
2022-11-05T11:19:03.239Z,101322.56
2022-11-05T11:21:31.134Z,101337.69
2022-11-05T11:24:00.482Z,101317.03
2022-11-05T11:26:29.177Z,101318.00
2022-11-05T11:28:57.658Z,101323.41
2022-11-05T11:31:26.260Z,101315.44
2022-11-05T11:33:58.416Z,101321.69
2022-11-05T11:36:26.102Z,101317.16
2022-11-05T11:38:56.883Z,101325.16
2022-11-05T11:41:26.652Z,101328.56
2022-11-05T11:43:55.052Z,101330.28
2022-11-05T11:46:22.586Z,101316.59
2022-11-05T11:48:50.555Z,101319.31
2022-11-05T11:51:21.481Z,101328.31
2022-11-05T11:53:49.805Z,101331.72
2022-11-05T11:56:18.614Z,101330.63
2022-11-05T11:58:48.358Z,101332.56
2022-11-05T12:01:22.929Z,101329.59
2022-11-05T12:03:50.861Z,101333.19
2022-11-05T12:06:20.286Z,101328.63
2022-11-05T12:08:56.404Z,101322.09
2022-11-05T12:11:28.689Z,101331.91
2022-11-05T12:13:59.674Z,101334.63
2022-11-05T12:16:34.072Z,101320.09
2022-11-05T12:19:03.866Z,101322.66
2022-11-05T12:21:51.271Z,101341.50
2022-11-05T12:24:22.271Z,101318.69
2022-11-05T12:26:52.634Z,101327.69
2022-11-05T12:29:41.140Z,101333.94
2022-11-05T12:32:30.161Z,101322.97
2022-11-05T12:34:58.917Z,101325.56
2022-11-05T12:37:29.166Z,101325.56
2022-11-05T12:40:02.626Z,101311.16
2022-11-05T12:42:33.747Z,101320.00
2022-11-05T12:45:02.513Z,101321.47
2022-11-05T12:47:38.935Z,101317.03
2022-11-05T12:50:12.461Z,101313.34
2022-11-05T12:52:55.451Z,101331.28
2022-11-05T12:55:23.429Z,101326.63
2022-11-05T12:57:52.943Z,101330.16
2022-11-05T13:00:21.004Z,101331.03
2022-11-05T13:02:50.848Z,101338.16
2022-11-05T13:05:19.309Z,101335.31
2022-11-05T13:07:49.245Z,101337.00
2022-11-05T13:10:19.761Z,101332.47
2022-11-05T13:12:47.223Z,101322.47
2022-11-05T13:15:16.441Z,101330.47
2022-11-05T13:17:47.204Z,101335.91
2022-11-05T13:20:17.700Z,101330.47
2022-11-05T13:22:45.774Z,101323.19
2022-11-05T13:25:14.218Z,101328.47
2022-11-05T13:27:44.567Z,101328.63
2022-11-05T13:30:14.521Z,101320.47
2022-11-05T13:32:42.534Z,101332.19
2022-11-05T13:35:16.503Z,101323.19
2022-11-05T13:38:02.276Z,101340.34
2022-11-05T13:40:41.951Z,101332.25
2022-11-05T13:43:14.032Z,101335.25
2022-11-05T13:45:51.146Z,101339.38
2022-11-05T13:48:28.899Z,101340.47
2022-11-05T13:51:13.598Z,101341.31
2022-11-05T13:53:51.982Z,101345.66
2022-11-05T13:56:21.323Z,101350.38
2022-11-05T13:59:06.848Z,101345.91
2022-11-05T14:01:45.017Z,101350.78
2022-11-05T14:04:16.692Z,101356.84
2022-11-05T14:06:45.764Z,101354.59
2022-11-05T14:09:13.222Z,101354.59
2022-11-05T14:11:41.513Z,101363.44
2022-11-05T14:14:10.384Z,101363.44
2022-11-05T14:16:47.015Z,101361.47
2022-11-05T14:19:31.343Z,101365.75
2022-11-05T14:22:01.857Z,101366.63
2022-11-05T14:24:39.894Z,101364.38
2022-11-05T14:27:26.105Z,101363.50
2022-11-05T14:29:53.699Z,101369.06
2022-11-05T14:32:25.490Z,101359.22
2022-11-05T14:34:55.908Z,101371.75
2022-11-05T14:37:26.254Z,101373.50
2022-11-05T14:39:54.404Z,101368.06
2022-11-05T14:42:23.624Z,101376.06
2022-11-05T14:44:58.395Z,101369.81
2022-11-05T14:47:26.824Z,101358.84
2022-11-05T14:49:55.130Z,101362.53
2022-11-05T14:52:22.745Z,101371.50
2022-11-05T14:54:51.891Z,101370.50
2022-11-05T14:57:34.199Z,101376.78
2022-11-05T15:00:03.957Z,101391.22
2022-11-05T15:02:36.363Z,101379.63
2022-11-05T15:05:22.304Z,101378.63
2022-11-05T15:07:56.829Z,101385.78
2022-11-05T15:10:25.914Z,101377.78
2022-11-05T15:12:54.145Z,101392.06
2022-11-05T15:15:22.611Z,101380.38
2022-11-05T15:17:57.933Z,101385.78
2022-11-05T15:20:30.544Z,101392.06
2022-11-05T15:22:58.383Z,101384.25
2022-11-05T15:25:29.144Z,101399.78
2022-11-05T15:28:06.469Z,101401.78
2022-11-05T15:30:33.978Z,101400.03
2022-11-05T15:33:11.288Z,101402.63
2022-11-05T15:35:39.715Z,101392.63
2022-11-05T15:38:21.258Z,101401.78
2022-11-05T15:40:52.990Z,101407.19
2022-11-05T15:43:20.717Z,101400.75
2022-11-05T15:46:04.302Z,101403.47
2022-11-05T15:48:31.882Z,101410.63
2022-11-05T15:50:59.370Z,101401.78
2022-11-05T15:54:08.221Z,101408.88
2022-11-05T15:56:27.040Z,101412.63
2022-11-05T15:58:55.748Z,101408.88
2022-11-05T16:01:23.785Z,101410.63
2022-11-05T16:03:51.670Z,101408.88
2022-11-05T16:06:19.169Z,101410.63
2022-11-05T16:08:47.377Z,101413.47
2022-11-05T16:11:20.997Z,101409.78
2022-11-05T16:13:51.470Z,101421.44
2022-11-05T16:16:34.544Z,101415.19
2022-11-05T16:19:02.127Z,101413.34
2022-11-05T16:21:29.643Z,101414.31
2022-11-05T16:23:57.858Z,101420.59
2022-11-05T16:26:55.754Z,101412.47
2022-11-05T16:29:17.637Z,101421.44
2022-11-05T16:31:49.268Z,101414.31
2022-11-05T16:34:19.523Z,101415.31
2022-11-05T16:36:47.422Z,101412.63
2022-11-05T16:39:14.875Z,101420.75
2022-11-05T16:41:43.149Z,101433.25
2022-11-05T16:44:11.207Z,101435.97
2022-11-05T16:46:40.159Z,101433.41
2022-11-05T16:49:07.674Z,101445.13
2022-11-05T16:51:35.475Z,101444.09
2022-11-05T16:54:03.371Z,101447.81
2022-11-05T16:56:31.313Z,101446.81
2022-11-05T16:58:59.048Z,101453.25
2022-11-05T17:01:28.047Z,101466.78
2022-11-05T17:03:57.497Z,101466.78
2022-11-05T17:06:25.511Z,101462.34
2022-11-05T17:08:53.273Z,101463.31
2022-11-05T17:11:21.574Z,101469.63
2022-11-05T17:13:49.332Z,101487.56
2022-11-05T17:16:17.707Z,101480.44
2022-11-05T17:18:45.527Z,101475.03
2022-11-05T17:21:15.608Z,101479.56
2022-11-05T17:23:43.721Z,101477.88
2022-11-05T17:26:11.928Z,101484.13
2022-11-05T17:28:40.816Z,101483.28
2022-11-05T17:31:09.513Z,101492.38
2022-11-05T17:33:37.209Z,101488.97
2022-11-05T17:36:06.521Z,101486.13
2022-11-05T17:38:35.688Z,101492.38
2022-11-05T17:41:03.529Z,101496.06
2022-11-05T17:43:31.206Z,101500.66
2022-11-05T17:46:04.346Z,101498.06
2022-11-05T17:48:32.906Z,101509.75
2022-11-05T17:51:00.769Z,101510.63
2022-11-05T17:53:29.155Z,101513.34
2022-11-05T17:56:01.138Z,101510.63
2022-11-05T17:58:31.127Z,101525.13
2022-11-05T18:00:59.622Z,101513.47
2022-11-05T18:03:27.399Z,101514.31
2022-11-05T18:05:55.045Z,101514.31
2022-11-05T18:08:22.695Z,101512.56
2022-11-05T18:10:50.337Z,101507.16
2022-11-05T18:13:19.530Z,101510.88
2022-11-05T18:15:47.234Z,101508.16
2022-11-05T18:18:14.850Z,101505.47
2022-11-05T18:20:43.148Z,101501.03
2022-11-05T18:23:11.125Z,101509.16
2022-11-05T18:25:40.634Z,101503.72
2022-11-05T18:28:08.280Z,101502.88
2022-11-05T18:30:38.522Z,101503.72
2022-11-05T18:33:06.293Z,101503.72
2022-11-05T18:35:34.265Z,101508.28
2022-11-05T18:38:02.200Z,101500.03
2022-11-05T18:40:30.103Z,101494.13
2022-11-05T18:42:57.859Z,101497.03
2022-11-05T18:45:29.673Z,101491.97
2022-11-05T18:47:59.623Z,101505.00
2022-11-05T18:50:27.570Z,101495.38
2022-11-05T18:52:55.441Z,101518.34
2022-11-05T18:55:23.143Z,101498.16
2022-11-05T18:57:50.947Z,101495.91
2022-11-05T19:00:18.774Z,101508.34
2022-11-05T19:02:46.883Z,101500.78
2022-11-05T19:05:32.174Z,101510.34
2022-11-05T19:08:00.434Z,101511.09
2022-11-05T19:10:28.481Z,101510.84
2022-11-05T19:12:59.096Z,101505.16
2022-11-05T19:15:26.931Z,101508.59
2022-11-05T19:17:54.631Z,101510.06
2022-11-05T19:20:24.829Z,101515.22
2022-11-05T19:22:52.516Z,101515.84
2022-11-05T19:25:20.329Z,101517.53
2022-11-05T19:27:48.342Z,101514.44
2022-11-05T19:30:16.266Z,101521.56
2022-11-05T19:32:44.013Z,101514.16
2022-11-05T19:35:11.775Z,101512.19
2022-11-05T19:37:40.904Z,101510.19
2022-11-05T19:40:09.276Z,101510.19
2022-11-05T19:42:37.079Z,101507.34
2022-11-05T19:45:30.196Z,101500.91
2022-11-05T19:47:53.287Z,101495.34
2022-11-05T19:50:21.138Z,101498.06
2022-11-05T19:52:51.019Z,101503.34
2022-11-05T19:55:19.084Z,101508.66
2022-11-05T19:57:47.337Z,101503.97
2022-11-05T20:00:15.932Z,101503.97
2022-11-05T20:02:44.459Z,101506.56
2022-11-05T20:05:12.234Z,101512.81
2022-11-05T20:07:39.917Z,101516.25
2022-11-05T20:10:09.618Z,101515.41
2022-11-05T20:12:37.360Z,101515.41
2022-11-05T20:15:07.995Z,101529.69
2022-11-05T20:17:35.861Z,101516.00
2022-11-05T20:20:04.269Z,101517.97
2022-11-05T20:22:32.081Z,101517.72
2022-11-05T20:24:59.870Z,101525.72
2022-11-05T20:27:29.074Z,101526.56
2022-11-05T20:29:57.186Z,101527.59
2022-11-05T20:32:24.857Z,101531.00
2022-11-05T20:34:52.486Z,101540.84
2022-11-05T20:37:20.646Z,101540.84
2022-11-05T20:39:48.961Z,101536.16
2022-11-05T20:42:17.320Z,101544.19
2022-11-05T20:44:46.643Z,101533.59
2022-11-05T20:47:14.551Z,101536.88
2022-11-05T20:49:42.912Z,101536.88
2022-11-05T20:52:12.180Z,101536.88
2022-11-05T20:54:39.860Z,101536.03
2022-11-05T20:57:07.585Z,101533.19
2022-11-05T20:59:35.397Z,101543.16
2022-11-05T21:02:04.756Z,101539.59
2022-11-05T21:04:32.720Z,101547.75
2022-11-05T21:07:00.790Z,101550.44
2022-11-05T21:09:28.835Z,101550.44
2022-11-05T21:12:11.703Z,101549.47
2022-11-05T21:14:39.654Z,101551.31
2022-11-05T21:17:08.969Z,101547.75
2022-11-05T21:19:36.690Z,101553.16
2022-11-05T21:22:04.370Z,101560.31
2022-11-05T21:24:32.399Z,101563.03
2022-11-05T21:27:00.323Z,101555.75
2022-11-05T21:29:27.980Z,101549.47
2022-11-05T21:31:55.716Z,101542.19
2022-11-05T21:34:24.878Z,101534.88
2022-11-05T21:36:52.598Z,101541.19
2022-11-05T21:39:20.303Z,101540.31
2022-11-05T21:41:47.746Z,101542.03
2022-11-05T21:44:15.366Z,101536.63
2022-11-05T21:46:42.793Z,101544.63
2022-11-05T21:49:10.397Z,101542.91
2022-11-05T21:51:56.509Z,101529.31
2022-11-05T21:54:41.357Z,101540.19
2022-11-05T21:57:27.448Z,101545.47
2022-11-05T21:59:57.425Z,101547.22
2022-11-05T22:02:25.477Z,101541.78
2022-11-05T22:04:53.494Z,101534.50
2022-11-05T22:07:22.950Z,101535.22
2022-11-05T22:09:50.578Z,101528.06
2022-11-05T22:12:18.342Z,101539.78
2022-11-05T22:14:46.052Z,101540.66
2022-11-05T22:17:13.931Z,101544.09
2022-11-05T22:19:41.621Z,101544.94
2022-11-05T22:22:09.684Z,101545.81
2022-11-05T22:24:39.017Z,101538.66
2022-11-05T22:27:08.597Z,101533.22
2022-11-05T22:29:36.811Z,101531.50
2022-11-05T22:32:04.743Z,101529.53
2022-11-05T22:34:32.928Z,101532.38
2022-11-05T22:37:00.922Z,101530.66
2022-11-05T22:39:28.419Z,101534.97
2022-11-05T22:41:57.769Z,101531.38
2022-11-05T22:44:25.678Z,101534.06
2022-11-05T22:46:53.242Z,101535.81
2022-11-05T22:49:21.107Z,101535.81
2022-11-05T22:51:48.506Z,101546.66
2022-11-05T22:54:16.011Z,101540.38
2022-11-05T22:56:43.736Z,101540.22
2022-11-05T22:59:13.720Z,101539.38
2022-11-05T23:01:41.607Z,101535.81
2022-11-05T23:04:09.346Z,101541.25
2022-11-05T23:06:54.762Z,101527.66
2022-11-05T23:09:40.803Z,101531.22
2022-11-05T23:12:09.162Z,101529.38
2022-11-05T23:14:37.988Z,101535.69
2022-11-05T23:17:23.552Z,101528.38
2022-11-05T23:20:10.961Z,101533.09
2022-11-05T23:23:10.395Z,101537.50
2022-11-05T23:25:37.862Z,101529.38
2022-11-05T23:28:09.785Z,101532.97
2022-11-05T23:31:00.406Z,101531.22
2022-11-05T23:33:26.921Z,101532.06
2022-11-05T23:36:12.009Z,101532.38
2022-11-05T23:38:39.538Z,101526.66
2022-11-05T23:41:24.501Z,101528.91
2022-11-05T23:44:09.334Z,101527.81
2022-11-05T23:46:55.757Z,101536.34
2022-11-05T23:49:23.208Z,101526.63
2022-11-05T23:51:50.694Z,101525.75
2022-11-05T23:54:22.581Z,101525.75
2022-11-05T23:56:50.211Z,101519.22
2022-11-05T23:59:17.662Z,101523.63
